Time;durP1;ratioP1;P1;durP2;ratioP2;P2;SDS_P1;SDS_P2;PMS_P1;PMS_P2;Temp;Humidity;BMP_temperature;BMP_pressure;BME280_temperature;BME280_humidity;BME280_pressure;Samples;Min_cycle;Max_cycle;Signal;HPM_P1;HPM_P2
2023/01/10 00:00:01;;;;;;;;;;;;;;;12.84;75.86;100779.09;1047946;28;685;-63
2023/01/10 00:00:51;;;;;;;;;;;;;;;12.82;76.56;100785.53;1047684;28;713;-63
2023/01/10 00:01:42;;;;;;;;;;;;;;;12.83;76.14;100787.25;1050394;28;1230;-63
2023/01/10 00:02:32;;;;;;;;;;;;;;;12.82;76.34;100786.38;1051237;28;1485;-63
2023/01/10 00:03:23;;;;;;;;;;;;;;;12.80;76.19;100798.16;1047806;28;680;-63
2023/01/10 00:04:13;;;;;;;;;;;;;;;12.81;76.67;100808.75;1047761;28;1207;-63
2023/01/10 00:05:03;;;;;;;;;;;;;;;12.81;76.13;100803.41;1052435;28;691;-63
2023/01/10 00:05:54;;;;;;;;;;;;;;;12.80;76.72;100803.50;1048936;28;1493;-63
2023/01/10 00:06:44;;;;;;;;;;;;;;;12.79;76.69;100809.81;1050458;28;837;-63
2023/01/10 00:07:35;;;;;;;;;;;;;;;12.78;76.39;100803.63;1050662;28;1159;-63
2023/01/10 00:08:25;;;;;;;;;;;;;;;12.78;76.69;100805.44;1051656;28;714;-63
2023/01/10 00:09:16;;;;;;;;;;;;;;;12.79;76.31;100805.34;1051814;28;666;-63
2023/01/10 00:10:06;;;;;;;;;;;;;;;12.79;76.24;100804.47;1052370;28;960;-62
2023/01/10 00:10:57;;;;;;;;;;;;;;;12.82;75.93;100813.13;1051680;28;625;-62
2023/01/10 00:14:05;;;;;;;;;;;;;;;12.84;75.95;100813.03;1053313;28;677;-62
2023/01/10 00:14:56;;;;;;;;;;;;;;;12.82;76.51;100818.47;1051413;28;1905;-63
2023/01/10 00:15:46;;;;;;;;;;;;;;;12.80;75.89;100809.72;1052701;28;1205;-63
2023/01/10 00:16:38;;;;;;;;;;;;;;;12.82;75.93;100807.78;1052964;28;1342;-63
2023/01/10 00:17:28;;;;;;;;;;;;;;;12.80;76.35;100825.75;1052531;28;1186;-63
2023/01/10 00:18:19;;;;;;;;;;;;;;;12.79;76.06;100817.84;1048898;28;711;-63
2023/01/10 00:19:09;;;;;;;;;;;;;;;12.79;76.17;100816.03;1049084;28;641;-62
2023/01/10 00:20:00;;;;;;;;;;;;;;;12.79;76.58;100823.19;1048201;28;631;-62
2023/01/10 00:20:50;;;;;;;;;;;;;;;12.75;76.12;100817.22;1050131;28;1127;-63
2023/01/10 00:21:40;;;;;;;;;;;;;;;12.78;76.89;100816.13;1049029;28;680;-63
2023/01/10 00:22:31;;;;;;;;;;;;;;;12.76;75.92;100816.25;1048701;28;657;-63
2023/01/10 00:23:21;;;;;;;;;;;;;;;12.77;75.96;100817.97;1046176;28;1119;-63
2023/01/10 00:24:17;;;;;;;;;;;;;;;12.76;75.94;100824.28;1050291;28;636;-63
2023/01/10 00:25:08;;;;;;;;;;;;;;;12.78;76.06;100821.50;1046573;28;1167;-63
2023/01/10 00:25:58;;;;;;;;;;;;;;;12.77;76.60;100823.31;1053065;28;687;-63
2023/01/10 00:26:52;;;;;;;;;;;;;;;12.77;76.61;100828.66;1052218;28;1670;-63
2023/01/10 00:27:44;;;;;;;;;;;;;;;12.79;76.60;100829.41;1051768;28;689;-63
2023/01/10 00:28:34;;;;;;;;;;;;;;;12.79;76.14;100826.72;1049306;28;1429;-63
2023/01/10 00:29:26;;;;;;;;;;;;;;;12.81;76.58;100835.50;1052085;28;869;-63
2023/01/10 00:30:17;;;;;;;;;;;;;;;12.81;75.89;100835.50;1051680;28;752;-63
2023/01/10 00:31:07;;;;;;;;;;;;;;;12.80;76.79;100832.94;1051829;28;1020;-63
2023/01/10 00:31:58;;;;;;;;;;;;;;;12.82;75.86;100839.88;1051731;28;756;-63
2023/01/10 00:32:48;;;;;;;;;;;;;;;12.83;75.83;100833.56;1051766;28;1048;-63
2023/01/10 00:33:38;;;;;;;;;;;;;;;12.83;75.91;100830.88;1048633;28;597;-63
2023/01/10 00:34:31;;;;;;;;;;;;;;;12.81;76.62;100835.50;1048873;28;673;-63
2023/01/10 00:35:21;;;;;;;;;;;;;;;12.80;75.91;100839.13;1051829;28;1470;-63
2023/01/10 00:36:12;;;;;;;;;;;;;;;12.81;76.36;100843.50;1047678;28;636;-63
2023/01/10 00:37:02;;;;;;;;;;;;;;;12.79;75.94;100837.41;1049161;28;716;-63
2023/01/10 00:37:57;;;;;;;;;;;;;;;12.79;76.61;100848.13;1051832;28;598;-63
2023/01/10 00:38:48;;;;;;;;;;;;;;;12.79;75.96;100844.59;1050032;28;1174;-63
2023/01/10 00:39:39;;;;;;;;;;;;;;;12.82;76.54;100847.03;1048672;28;1116;-63
2023/01/10 00:40:29;;;;;;;;;;;;;;;12.80;75.81;100855.19;1050626;28;1150;-63
2023/01/10 00:43:57;;;;;;;;;;;;;;;12.87;75.80;100852.91;1049598;28;1203;-63
2023/01/10 00:44:47;;;;;;;;;;;;;;;12.89;75.59;100855.47;1047828;28;1103;-63
2023/01/10 00:45:38;;;;;;;;;;;;;;;12.89;76.49;100850.97;1045134;28;977;-63
2023/01/10 00:46:29;;;;;;;;;;;;;;;12.90;76.06;100849.97;1052876;28;1091;-63
2023/01/10 00:47:19;;;;;;;;;;;;;;;12.88;75.80;100854.63;1051267;28;1604;-63
2023/01/10 00:48:10;;;;;;;;;;;;;;;12.90;75.63;100857.19;1048365;28;713;-63
2023/01/10 00:49:02;;;;;;;;;;;;;;;12.86;75.83;100860.09;1048847;28;701;-63
2023/01/10 00:49:52;;;;;;;;;;;;;;;12.88;75.72;100857.28;1048893;28;626;-63
2023/01/10 00:50:43;;;;;;;;;;;;;;;12.88;76.16;100856.44;1051647;28;1178;-63
2023/01/10 00:51:33;;;;;;;;;;;;;;;12.85;76.39;100862.88;1049519;28;673;-63
2023/01/10 00:52:24;;;;;;;;;;;;;;;12.89;76.20;100868.84;1051974;28;968;-63
2023/01/10 00:53:14;;;;;;;;;;;;;;;12.91;75.85;100862.38;1046121;28;844;-63
2023/01/10 00:54:05;;;;;;;;;;;;;;;12.90;75.76;100863.34;1049120;28;617;-63
2023/01/10 00:54:55;;;;;;;;;;;;;;;12.87;76.51;100868.97;1052794;28;1899;-63
2023/01/10 00:55:45;;;;;;;;;;;;;;;12.85;76.46;100866.41;1051921;28;1115;-63
2023/01/10 00:56:36;;;;;;;;;;;;;;;12.86;75.97;100861.91;1048091;28;1072;-63
2023/01/10 00:57:26;;;;;;;;;;;;;;;12.85;75.63;100865.53;1048222;28;1287;-63
2023/01/10 00:58:17;;;;;;;;;;;;;;;12.83;75.73;100868.31;1048069;28;1068;-63
2023/01/10 00:59:08;;;;;;;;;;;;;;;12.83;75.87;100886.19;1048827;28;1139;-63
2023/01/10 00:59:58;;;;;;;;;;;;;;;12.81;75.92;100870.25;1048171;28;1150;-63
2023/01/10 01:00:49;;;;;;;;;;;;;;;12.80;76.25;100873.91;1050861;28;917;-63
2023/01/10 01:01:39;;;;;;;;;;;;;;;12.77;76.08;100882.13;1048023;28;1320;-63
2023/01/10 01:02:30;;;;;;;;;;;;;;;12.78;75.92;100883.84;1049316;28;995;-63
2023/01/10 01:03:22;;;;;;;;;;;;;;;12.79;75.91;100885.56;1048187;28;1198;-63
2023/01/10 01:04:12;;;;;;;;;;;;;;;12.79;76.33;100880.22;1049888;28;1116;-63
2023/01/10 01:05:03;;;;;;;;;;;;;;;12.80;76.43;100873.03;1048704;28;1120;-63
2023/01/10 01:05:53;;;;;;;;;;;;;;;12.78;75.88;100880.31;1049174;28;1039;-63
2023/01/10 01:06:44;;;;;;;;;;;;;;;12.77;75.83;100879.47;1048832;28;1147;-63
2023/01/10 01:07:35;;;;;;;;;;;;;;;12.77;76.16;100887.50;1051382;28;1055;-63
2023/01/10 01:08:25;;;;;;;;;;;;;;;12.79;75.82;100887.38;1049190;28;1154;-63
2023/01/10 01:09:16;;;;;;;;;;;;;;;12.78;75.76;100883.84;1049263;28;1297;-63
2023/01/10 01:11:15;;;;;;;;;;;;;;;12.75;76.58;100885.88;1050614;28;1182;-63
2023/01/10 01:12:06;;;;;;;;;;;;;;;12.76;76.47;100893.81;1051728;28;630;-63
2023/01/10 01:12:56;;;;;;;;;;;;;;;12.77;76.46;100894.66;1048405;28;1115;-63
2023/01/10 01:13:47;;;;;;;;;;;;;;;12.76;76.68;100896.47;1048283;28;687;-63
2023/01/10 01:14:37;;;;;;;;;;;;;;;12.75;76.51;100888.56;1041974;28;1110;-63
2023/01/10 01:15:27;;;;;;;;;;;;;;;12.73;75.93;100890.50;1049359;28;641;-63
2023/01/10 01:16:18;;;;;;;;;;;;;;;12.76;76.17;100895.63;1051554;28;1158;-63
2023/01/10 01:17:08;;;;;;;;;;;;;;;12.75;75.85;100894.75;1051874;28;646;-63
2023/01/10 01:17:59;;;;;;;;;;;;;;;12.78;75.86;100894.53;1051367;28;1589;-63
2023/01/10 01:18:49;;;;;;;;;;;;;;;12.77;76.25;100895.50;1050847;28;996;-63
2023/01/10 01:19:40;;;;;;;;;;;;;;;12.77;75.93;100897.31;1051395;28;1110;-63
2023/01/10 01:20:30;;;;;;;;;;;;;;;12.74;76.24;100905.56;1050854;28;744;-63
2023/01/10 01:21:21;;;;;;;;;;;;;;;12.75;76.56;100901.94;1052764;28;1306;-63
2023/01/10 01:22:11;;;;;;;;;;;;;;;12.74;76.42;100901.06;1052277;28;1020;-63
2023/01/10 01:23:01;;;;;;;;;;;;;;;12.74;76.17;100901.06;1052127;28;1187;-63
2023/01/10 01:23:52;;;;;;;;;;;;;;;12.76;76.46;100899.16;1050785;28;1051;-63
2023/01/10 01:24:42;;;;;;;;;;;;;;;12.73;76.44;100904.72;1048490;28;1258;-63
2023/01/10 01:25:33;;;;;;;;;;;;;;;12.73;75.75;100906.53;1047248;28;1131;-63
2023/01/10 01:26:23;;;;;;;;;;;;;;;12.72;75.85;100908.34;1052513;28;1195;-63
2023/01/10 01:27:14;;;;;;;;;;;;;;;12.76;75.55;100899.16;1048541;28;649;-63
2023/01/10 01:28:04;;;;;;;;;;;;;;;12.82;76.08;100905.88;1051851;28;1553;-63
2023/01/10 01:28:55;;;;;;;;;;;;;;;12.81;75.42;100902.34;1051933;28;1095;-63
2023/01/10 01:29:45;;;;;;;;;;;;;;;12.81;75.98;100912.19;1052302;28;684;-63
2023/01/10 01:30:36;;;;;;;;;;;;;;;12.81;75.51;100909.50;1048837;28;669;-63
2023/01/10 01:31:26;;;;;;;;;;;;;;;12.81;75.32;100909.50;1052087;28;1245;-63
2023/01/10 01:32:17;;;;;;;;;;;;;;;12.78;76.35;100915.09;1050984;28;1067;-63
2023/01/10 01:33:08;;;;;;;;;;;;;;;12.79;75.60;100909.63;1052094;28;738;-63
2023/01/10 01:33:58;;;;;;;;;;;;;;;12.78;75.66;100913.25;1052357;28;673;-63
2023/01/10 01:34:49;;;;;;;;;;;;;;;12.77;75.56;100922.25;1051865;28;1889;-63
2023/01/10 01:35:39;;;;;;;;;;;;;;;12.78;76.28;100923.97;1052077;28;1150;-63
2023/01/10 01:36:29;;;;;;;;;;;;;;;12.77;75.56;100922.25;1050446;28;1468;-64
2023/01/10 01:37:20;;;;;;;;;;;;;;;12.78;76.35;100923.09;1049010;28;625;-63
2023/01/10 01:38:10;;;;;;;;;;;;;;;12.77;76.42;100922.25;1051459;28;888;-63
2023/01/10 01:39:02;;;;;;;;;;;;;;;12.79;75.66;100920.31;1052215;28;684;-63
2023/01/10 01:39:53;;;;;;;;;;;;;;;12.79;75.53;100917.66;1053273;28;789;-63
2023/01/10 01:40:43;;;;;;;;;;;;;;;12.79;76.27;100914.97;1052063;28;1155;-63
2023/01/10 01:42:43;;;;;;;;;;;;;;;12.82;76.07;100912.09;1048680;28;743;-63
2023/01/10 01:43:34;;;;;;;;;;;;;;;12.83;75.58;100916.47;1047861;28;713;-63
2023/01/10 01:44:24;;;;;;;;;;;;;;;12.82;75.58;100920.09;1052954;28;701;-63
2023/01/10 01:45:15;;;;;;;;;;;;;;;12.80;76.25;100921.19;1051916;28;1138;-63
2023/01/10 01:46:05;;;;;;;;;;;;;;;12.79;75.53;100924.81;1052061;28;1575;-63
2023/01/10 01:46:56;;;;;;;;;;;;;;;12.81;76.01;100925.56;1053391;28;646;-64
2023/01/10 01:47:46;;;;;;;;;;;;;;;12.80;75.74;100923.84;1049481;28;748;-64
2023/01/10 01:48:37;;;;;;;;;;;;;;;12.81;75.43;100925.56;1048796;28;1067;-63
2023/01/10 01:49:27;;;;;;;;;;;;;;;12.80;75.46;100923.84;1052783;28;726;-63
2023/01/10 01:50:17;;;;;;;;;;;;;;;12.81;75.51;100921.06;1052317;28;634;-64
2023/01/10 01:51:08;;;;;;;;;;;;;;;12.83;76.22;100920.97;1052663;28;714;-64
2023/01/10 01:51:58;;;;;;;;;;;;;;;12.79;75.57;100920.31;1052731;28;1250;-63
2023/01/10 01:52:49;;;;;;;;;;;;;;;12.80;75.66;100916.69;1048501;28;662;-63
2023/01/10 01:53:39;;;;;;;;;;;;;;;12.82;75.51;100924.59;1052683;28;1032;-63
2023/01/10 01:54:29;;;;;;;;;;;;;;;12.80;76.17;100927.38;1048721;28;673;-63
2023/01/10 01:55:20;;;;;;;;;;;;;;;12.83;75.64;100926.31;1051308;28;1141;-63
2023/01/10 01:56:10;;;;;;;;;;;;;;;12.81;75.89;100929.09;1049170;28;661;-63
2023/01/10 01:57:01;;;;;;;;;;;;;;;12.80;75.90;100932.72;1048054;28;677;-63
2023/01/10 01:57:51;;;;;;;;;;;;;;;12.80;75.57;100931.88;1051574;28;1167;-63
2023/01/10 01:58:42;;;;;;;;;;;;;;;12.77;75.70;100929.41;1053038;28;1666;-63
2023/01/10 01:59:32;;;;;;;;;;;;;;;12.76;75.86;100920.53;1049116;28;626;-63
2023/01/10 02:00:22;;;;;;;;;;;;;;;12.77;76.41;100926.75;1049028;28;1215;-64
2023/01/10 02:01:13;;;;;;;;;;;;;;;12.79;75.75;100923.00;1052064;28;642;-63
2023/01/10 02:02:03;;;;;;;;;;;;;;;12.80;76.40;100931.88;1052014;28;1021;-64
2023/01/10 02:02:54;;;;;;;;;;;;;;;12.79;76.13;100924.81;1047811;28;701;-63
2023/01/10 02:03:44;;;;;;;;;;;;;;;12.79;75.96;100931.03;1051506;28;1132;-63
2023/01/10 02:04:35;;;;;;;;;;;;;;;12.78;75.61;100931.13;1052649;28;1158;-63
2023/01/10 02:05:25;;;;;;;;;;;;;;;12.78;76.05;100934.66;1052286;28;716;-63
2023/01/10 02:06:16;;;;;;;;;;;;;;;12.74;75.62;100927.81;1051789;28;1653;-63
2023/01/10 02:07:06;;;;;;;;;;;;;;;12.76;75.70;100925.03;1052440;28;937;-64
2023/01/10 02:07:56;;;;;;;;;;;;;;;12.75;75.92;100932.19;1052329;28;958;-63
2023/01/10 02:08:49;;;;;;;;;;;;;;;12.74;76.47;100930.50;1052317;28;632;-64
2023/01/10 02:09:39;;;;;;;;;;;;;;;12.76;76.07;100935.72;1052113;28;1127;-63
2023/01/10 02:10:30;;;;;;;;;;;;;;;12.77;75.77;100924.06;1048440;28;630;-63
2023/01/10 02:11:20;;;;;;;;;;;;;;;12.77;75.62;100932.09;1050274;28;1155;-63
2023/01/10 02:12:12;;;;;;;;;;;;;;;12.74;75.49;100929.63;1048545;28;705;-63
2023/01/10 02:13:03;;;;;;;;;;;;;;;12.74;75.88;100933.16;1048381;28;614;-63
2023/01/10 02:13:53;;;;;;;;;;;;;;;12.75;75.63;100934.88;1047919;28;813;-63
2023/01/10 02:14:44;;;;;;;;;;;;;;;12.74;75.75;100932.31;1046761;28;1172;-63
2023/01/10 02:15:34;;;;;;;;;;;;;;;12.74;76.24;100933.16;1048210;28;705;-63
2023/01/10 02:16:24;;;;;;;;;;;;;;;12.71;76.15;100930.75;1052305;28;1564;-63
2023/01/10 02:17:15;;;;;;;;;;;;;;;12.73;76.18;100931.44;1051983;28;626;-63
2023/01/10 02:18:05;;;;;;;;;;;;;;;12.74;75.48;100932.31;1051939;28;1417;-62
2023/01/10 02:18:56;;;;;;;;;;;;;;;12.72;76.11;100936.94;1051763;28;1226;-63
2023/01/10 02:19:46;;;;;;;;;;;;;;;12.72;75.46;100935.09;1052087;28;808;-63
2023/01/10 02:20:37;;;;;;;;;;;;;;;12.75;75.57;100934.03;1052226;28;1119;-63
2023/01/10 02:21:29;;;;;;;;;;;;;;;12.74;75.64;100925.16;1047559;28;705;-63
2023/01/10 02:22:19;;;;;;;;;;;;;;;12.74;75.88;100932.31;1047681;28;630;-62
2023/01/10 02:23:10;;;;;;;;;;;;;;;12.72;75.61;100934.28;1052510;28;725;-63
2023/01/10 02:24:00;;;;;;;;;;;;;;;12.74;75.66;100938.50;1052745;28;617;-62
2023/01/10 02:24:51;;;;;;;;;;;;;;;12.74;75.88;100941.19;1052226;28;621;-63
2023/01/10 02:25:41;;;;;;;;;;;;;;;12.75;76.05;100942.91;1051274;28;1647;-63
2023/01/10 02:26:31;;;;;;;;;;;;;;;12.75;75.53;100948.25;1048132;28;622;-63
2023/01/10 02:27:22;;;;;;;;;;;;;;;12.73;75.67;100942.16;1049044;28;661;-62
2023/01/10 02:28:12;;;;;;;;;;;;;;;12.75;75.43;100940.22;1048031;28;725;-63
2023/01/10 02:29:03;;;;;;;;;;;;;;;12.75;76.04;100934.88;1049041;28;1044;-62
2023/01/10 02:29:53;;;;;;;;;;;;;;;12.75;75.51;100937.56;1048465;28;603;-63
2023/01/10 02:30:44;;;;;;;;;;;;;;;12.72;75.78;100940.44;1049118;28;705;-63
2023/01/10 02:31:34;;;;;;;;;;;;;;;12.71;75.66;100938.75;1048880;28;742;-62
2023/01/10 02:32:25;;;;;;;;;;;;;;;12.71;75.77;100938.75;1052155;28;697;-63
2023/01/10 02:33:15;;;;;;;;;;;;;;;12.74;75.74;100937.66;1052403;28;1178;-63
2023/01/10 02:34:05;;;;;;;;;;;;;;;12.73;75.91;100931.44;1051989;28;739;-63
2023/01/10 02:34:56;;;;;;;;;;;;;;;12.72;75.90;100935.09;1051551;28;1890;-63
2023/01/10 02:35:46;;;;;;;;;;;;;;;12.73;75.83;100938.63;1051387;28;1552;-63
2023/01/10 02:36:37;;;;;;;;;;;;;;;12.71;76.16;100938.75;1048791;28;664;-63
2023/01/10 02:37:27;;;;;;;;;;;;;;;12.71;75.95;100938.75;1047836;28;1119;-63
2023/01/10 02:38:17;;;;;;;;;;;;;;;12.69;76.14;100940.69;1052531;28;713;-62
2023/01/10 02:39:08;;;;;;;;;;;;;;;12.70;75.62;100938.88;1051838;28;674;-63
2023/01/10 02:39:58;;;;;;;;;;;;;;;12.73;75.81;100941.28;1052054;28;619;-63
2023/01/10 02:40:49;;;;;;;;;;;;;;;12.71;76.00;100933.41;1049505;28;661;-63
2023/01/10 02:41:39;;;;;;;;;;;;;;;12.72;75.82;100939.63;1048882;28;687;-63
2023/01/10 02:42:30;;;;;;;;;;;;;;;12.74;76.21;100934.97;1049068;28;661;-63
2023/01/10 02:43:20;;;;;;;;;;;;;;;12.73;75.28;100931.44;1048946;28;661;-63
2023/01/10 02:44:10;;;;;;;;;;;;;;;12.73;76.06;100936.81;1051747;28;1083;-63
2023/01/10 02:45:01;;;;;;;;;;;;;;;12.73;75.35;100931.44;1052513;28;653;-63
2023/01/10 02:45:51;;;;;;;;;;;;;;;12.73;75.50;100936.81;1051961;28;665;-63
2023/01/10 02:46:42;;;;;;;;;;;;;;;12.73;75.47;100936.81;1052206;28;673;-63
2023/01/10 02:47:32;;;;;;;;;;;;;;;12.70;75.79;100939.72;1050652;28;1055;-62
2023/01/10 02:48:22;;;;;;;;;;;;;;;12.71;75.53;100941.44;1048626;28;698;-63
2023/01/10 02:49:13;;;;;;;;;;;;;;;12.71;76.18;100944.09;1048888;28;713;-63
2023/01/10 02:50:03;;;;;;;;;;;;;;;12.71;76.17;100944.09;1049843;28;1672;-63
2023/01/10 02:50:54;;;;;;;;;;;;;;;12.73;75.44;100950.16;1052437;28;665;-63
2023/01/10 02:51:44;;;;;;;;;;;;;;;12.73;76.13;100938.63;1051863;28;705;-63
2023/01/10 02:52:35;;;;;;;;;;;;;;;12.72;76.28;100935.09;1048974;28;672;-63
2023/01/10 02:53:25;;;;;;;;;;;;;;;12.71;76.15;100941.44;1049783;28;703;-63
2023/01/10 02:54:18;;;;;;;;;;;;;;;12.69;76.15;100940.69;1052036;28;696;-63
2023/01/10 02:55:08;;;;;;;;;;;;;;;12.71;75.51;100938.75;1048320;28;1898;-63
2023/01/10 02:55:59;;;;;;;;;;;;;;;12.71;75.46;100943.25;1044014;28;622;-63
2023/01/10 02:56:49;;;;;;;;;;;;;;;12.71;76.16;100944.09;1052580;28;805;-63
2023/01/10 02:57:40;;;;;;;;;;;;;;;12.70;76.06;100947.75;1048781;28;637;-63
2023/01/10 02:58:30;;;;;;;;;;;;;;;12.71;75.38;100946.78;1049566;28;617;-63
2023/01/10 02:59:21;;;;;;;;;;;;;;;12.72;75.50;100953.81;1048985;28;672;-63
2023/01/10 03:00:11;;;;;;;;;;;;;;;12.72;75.25;100961.84;1051163;28;1580;-63
2023/01/10 03:01:01;;;;;;;;;;;;;;;12.73;75.57;100966.22;1048924;28;542;-63
2023/01/10 03:01:55;;;;;;;;;;;;;;;12.74;75.33;100967.06;1048845;28;605;-63
2023/01/10 03:02:45;;;;;;;;;;;;;;;12.76;75.62;100975.84;1051746;28;1072;-63
2023/01/10 03:03:36;;;;;;;;;;;;;;;12.77;75.46;100981.09;1048485;28;632;-63
2023/01/10 03:04:26;;;;;;;;;;;;;;;12.77;76.21;100990.91;1052276;28;1167;-63
2023/01/10 03:05:16;;;;;;;;;;;;;;;12.77;76.03;100980.22;1052066;28;704;-63
2023/01/10 03:06:07;;;;;;;;;;;;;;;12.78;75.74;100989.97;1049368;28;789;-63
2023/01/10 03:06:58;;;;;;;;;;;;;;;12.76;76.08;100995.41;1051960;28;681;-63
2023/01/10 03:07:48;;;;;;;;;;;;;;;12.78;75.24;100988.13;1050769;28;1500;-63
2023/01/10 03:08:39;;;;;;;;;;;;;;;12.78;75.58;100982.78;1052534;28;621;-63
2023/01/10 03:09:29;;;;;;;;;;;;;;;12.80;75.18;100985.34;1051803;28;1238;-63
2023/01/10 03:10:19;;;;;;;;;;;;;;;12.80;75.71;100985.34;1051922;28;1173;-63
2023/01/10 03:11:10;;;;;;;;;;;;;;;12.79;75.57;100979.16;1051771;28;702;-63
2023/01/10 03:12:01;;;;;;;;;;;;;;;12.76;75.38;100984.72;1051772;28;1166;-63
2023/01/10 03:12:51;;;;;;;;;;;;;;;12.77;75.14;100980.22;1051742;28;814;-63
2023/01/10 03:13:41;;;;;;;;;;;;;;;12.76;75.54;100983.88;1051875;28;1206;-63
2023/01/10 03:14:32;;;;;;;;;;;;;;;12.76;75.22;100987.41;1044985;28;1028;-64
2023/01/10 03:15:22;;;;;;;;;;;;;;;12.75;75.20;100983.00;1043917;28;650;-63
2023/01/10 03:16:13;;;;;;;;;;;;;;;12.75;75.20;100991.03;1048954;28;1493;-63
2023/01/10 03:17:03;;;;;;;;;;;;;;;12.74;75.96;100985.78;1052418;28;708;-63
2023/01/10 03:17:53;;;;;;;;;;;;;;;12.74;75.44;100997.34;1048369;28;657;-63
2023/01/10 03:18:44;;;;;;;;;;;;;;;12.76;75.95;100990.06;1047572;28;693;-63
2023/01/10 03:19:34;;;;;;;;;;;;;;;12.74;75.35;100989.31;1052027;28;630;-63
2023/01/10 03:20:25;;;;;;;;;;;;;;;12.73;75.83;100992.09;1051581;28;711;-63
2023/01/10 03:21:15;;;;;;;;;;;;;;;12.73;75.28;100992.09;1051802;28;666;-63
2023/01/10 03:22:06;;;;;;;;;;;;;;;12.73;75.58;100994.78;1051386;28;1146;-63
2023/01/10 03:22:56;;;;;;;;;;;;;;;12.74;75.41;100993.81;1052336;28;665;-63
2023/01/10 03:23:47;;;;;;;;;;;;;;;12.70;75.27;101000.38;1051589;28;761;-63
2023/01/10 03:24:37;;;;;;;;;;;;;;;12.72;75.47;101003.78;1051650;28;1146;-63
2023/01/10 03:25:27;;;;;;;;;;;;;;;12.71;75.51;100999.41;1051988;28;666;-63
2023/01/10 03:26:18;;;;;;;;;;;;;;;12.69;75.65;101002.19;1051409;28;1401;-63
2023/01/10 03:27:08;;;;;;;;;;;;;;;12.69;75.58;101002.19;1051197;28;662;-63
2023/01/10 03:27:59;;;;;;;;;;;;;;;12.71;75.99;101008.28;1052086;28;669;-63
2023/01/10 03:28:49;;;;;;;;;;;;;;;12.69;75.96;101007.53;1052373;28;742;-63
2023/01/10 03:29:40;;;;;;;;;;;;;;;12.70;75.58;101011.06;1052946;28;657;-63
2023/01/10 03:30:30;;;;;;;;;;;;;;;12.70;76.07;101009.25;1051094;28;1072;-63
2023/01/10 03:31:21;;;;;;;;;;;;;;;12.72;75.94;101009.97;1052008;28;629;-63
2023/01/10 03:32:11;;;;;;;;;;;;;;;12.72;76.06;101020.66;1050173;28;1131;-63
2023/01/10 03:33:01;;;;;;;;;;;;;;;12.70;75.82;101022.63;1051990;28;767;-63
2023/01/10 03:33:52;;;;;;;;;;;;;;;12.70;75.65;101022.63;1048177;28;822;-63
2023/01/10 03:34:42;;;;;;;;;;;;;;;12.73;75.88;101021.50;1051407;28;1159;-63
2023/01/10 03:35:33;;;;;;;;;;;;;;;12.73;75.39;101025.03;1048555;28;1043;-63
2023/01/10 03:36:25;;;;;;;;;;;;;;;12.75;75.39;101024.94;1051857;28;626;-62
2023/01/10 03:37:16;;;;;;;;;;;;;;;12.73;76.04;101030.38;1052050;28;669;-63
2023/01/10 03:38:06;;;;;;;;;;;;;;;12.72;75.71;101025.19;1051376;28;765;-63
2023/01/10 03:38:56;;;;;;;;;;;;;;;12.73;75.41;101032.22;1051756;28;1725;-63
2023/01/10 03:39:47;;;;;;;;;;;;;;;12.73;75.42;101029.53;1052141;28;925;-63
2023/01/10 03:40:37;;;;;;;;;;;;;;;12.72;75.96;101030.53;1050850;28;1600;-63
2023/01/10 03:41:28;;;;;;;;;;;;;;;12.74;76.16;101034.78;1052614;28;1386;-63
2023/01/10 03:42:18;;;;;;;;;;;;;;;12.74;75.42;101036.59;1051115;28;1059;-62
2023/01/10 03:45:27;;;;;;;;;;;;;;;12.72;76.08;101034.03;1048892;28;653;-63
2023/01/10 03:46:20;;;;;;;;;;;;;;;12.74;76.02;101037.44;1051753;28;700;-63
2023/01/10 03:47:11;;;;;;;;;;;;;;;12.75;76.04;101044.50;1052656;28;1142;-63
2023/01/10 03:48:01;;;;;;;;;;;;;;;12.75;75.96;101047.19;1052436;28;682;-63
2023/01/10 03:48:51;;;;;;;;;;;;;;;12.71;75.68;101047.53;1052909;28;704;-63
2023/01/10 03:49:42;;;;;;;;;;;;;;;12.73;75.56;101050.94;1053173;28;737;-63
2023/01/10 03:50:32;;;;;;;;;;;;;;;12.72;76.08;101047.41;1050319;28;1020;-63
2023/01/10 03:51:23;;;;;;;;;;;;;;;12.72;76.14;101049.25;1049299;28;613;-63
2023/01/10 03:52:13;;;;;;;;;;;;;;;12.71;75.38;101056.41;1052230;28;1664;-63
2023/01/10 03:53:04;;;;;;;;;;;;;;;12.71;76.18;101058.22;1048748;28;634;-63
2023/01/10 03:53:54;;;;;;;;;;;;;;;12.71;76.02;101050.22;1048935;28;621;-63
2023/01/10 03:54:44;;;;;;;;;;;;;;;12.73;75.21;101056.28;1048656;28;637;-63
2023/01/10 03:55:36;;;;;;;;;;;;;;;12.73;76.12;101054.47;1050659;28;1128;-63
2023/01/10 03:56:26;;;;;;;;;;;;;;;12.71;75.79;101053.75;1048990;28;666;-63
2023/01/10 03:57:17;;;;;;;;;;;;;;;12.71;75.89;101055.56;1052241;28;662;-63
2023/01/10 03:58:07;;;;;;;;;;;;;;;12.72;75.84;101060.78;1052327;28;1130;-63
2023/01/10 03:58:57;;;;;;;;;;;;;;;12.71;75.64;101056.41;1052709;28;753;-63
2023/01/10 03:59:48;;;;;;;;;;;;;;;12.71;75.98;101053.75;1052435;28;621;-63
2023/01/10 04:00:40;;;;;;;;;;;;;;;12.71;76.07;101056.41;1052587;28;689;-63
2023/01/10 04:01:30;;;;;;;;;;;;;;;12.72;76.07;101051.91;1052603;28;921;-63
2023/01/10 04:02:21;;;;;;;;;;;;;;;12.74;75.36;101056.16;1052579;28;1164;-63
2023/01/10 04:03:11;;;;;;;;;;;;;;;12.71;76.12;101061.75;1052565;28;890;-62
2023/01/10 04:04:02;;;;;;;;;;;;;;;12.74;75.20;101064.19;1052708;28;661;-63
2023/01/10 04:04:53;;;;;;;;;;;;;;;12.71;75.21;101061.75;1052863;28;630;-63
2023/01/10 04:05:43;;;;;;;;;;;;;;;12.71;75.68;101064.44;1050090;28;1062;-63
2023/01/10 04:06:34;;;;;;;;;;;;;;;12.71;75.43;101066.25;1052750;28;622;-63
2023/01/10 04:07:24;;;;;;;;;;;;;;;12.70;75.63;101059.19;1048594;28;642;-64
2023/01/10 04:08:15;;;;;;;;;;;;;;;12.71;76.39;101061.75;1049147;28;598;-63
2023/01/10 04:09:05;;;;;;;;;;;;;;;12.70;75.53;101067.22;1048282;28;653;-63
2023/01/10 04:09:56;;;;;;;;;;;;;;;12.69;75.57;101058.34;1052685;28;693;-63
2023/01/10 04:10:46;;;;;;;;;;;;;;;12.73;75.26;101072.31;1049500;28;738;-63
2023/01/10 04:11:36;;;;;;;;;;;;;;;12.72;75.71;101067.97;1052347;28;1552;-64
2023/01/10 04:12:27;;;;;;;;;;;;;;;12.73;75.30;101066.97;1048628;28;666;-63
2023/01/10 04:13:17;;;;;;;;;;;;;;;12.71;76.14;101067.09;1052533;28;648;-63
2023/01/10 04:14:08;;;;;;;;;;;;;;;12.72;75.79;101068.78;1053177;28;1127;-63
2023/01/10 04:14:58;;;;;;;;;;;;;;;12.72;75.32;101070.63;1052374;28;1977;-63
2023/01/10 04:15:50;;;;;;;;;;;;;;;12.71;75.44;101072.47;1049637;28;637;-63
2023/01/10 04:16:40;;;;;;;;;;;;;;;12.72;75.82;101079.47;1050063;28;743;-63
2023/01/10 04:17:31;;;;;;;;;;;;;;;12.71;75.74;101077.81;1052648;28;626;-63
2023/01/10 04:18:22;;;;;;;;;;;;;;;12.72;76.04;101070.63;1053230;28;1171;-63
2023/01/10 04:19:12;;;;;;;;;;;;;;;12.71;75.70;101074.28;1052641;28;822;-63
2023/01/10 04:20:03;;;;;;;;;;;;;;;12.71;75.59;101072.47;1052336;28;693;-63
2023/01/10 04:20:53;;;;;;;;;;;;;;;12.71;75.48;101077.81;1052409;28;1122;-63
2023/01/10 04:21:44;;;;;;;;;;;;;;;12.71;75.98;101075.13;1052285;28;762;-63
2023/01/10 04:22:34;;;;;;;;;;;;;;;12.71;76.04;101080.47;1052936;28;1225;-63
2023/01/10 04:23:25;;;;;;;;;;;;;;;12.72;75.97;101079.47;1052629;28;734;-63
2023/01/10 04:24:15;;;;;;;;;;;;;;;12.72;76.20;101076.81;1052009;28;1663;-63
2023/01/10 04:25:05;;;;;;;;;;;;;;;12.74;76.02;101082.91;1049488;28;622;-63
2023/01/10 04:25:56;;;;;;;;;;;;;;;12.72;75.55;101087.50;1050696;28;1455;-63
2023/01/10 04:26:46;;;;;;;;;;;;;;;12.71;76.13;101083.16;1049000;28;1083;-63
2023/01/10 04:27:37;;;;;;;;;;;;;;;12.70;75.73;101083.25;1052571;28;701;-63
2023/01/10 04:28:27;;;;;;;;;;;;;;;12.69;75.97;101084.22;1048941;28;1103;-63
2023/01/10 04:29:18;;;;;;;;;;;;;;;12.71;75.45;101084.97;1052658;28;728;-63
2023/01/10 04:30:08;;;;;;;;;;;;;;;12.70;75.37;101089.47;1049420;28;1095;-63
2023/01/10 04:30:58;;;;;;;;;;;;;;;12.72;75.85;101089.34;1052633;28;785;-63
2023/01/10 04:31:49;;;;;;;;;;;;;;;12.72;76.04;101087.50;1049349;28;629;-62
2023/01/10 04:32:39;;;;;;;;;;;;;;;12.69;76.02;101085.06;1051516;28;1108;-63
2023/01/10 04:33:31;;;;;;;;;;;;;;;12.67;76.04;101089.66;1052289;28;630;-63
2023/01/10 04:34:21;;;;;;;;;;;;;;;12.69;75.99;101094.91;1051128;28;783;-63